Radiosonde details



Informationen :

Serial : Y0552602
Type : Vaisala RS41-NG
Date of production : 30.01.2026
Frequency : 404.800MHz
Launchsite : Boise Air Terminal
Nearest town : Mountain Home, US (43.3km)

Altitude (Max) : 33404m at 2026-08-30 18:47:36
Speed (Max) : 102km/h at altitude 10574m

Average speed : 47km/h
Average ascent rate : 5m/s
Average descent rate : -21m/s
Ascent rate (Max) : 11.3m/s
Descent rate (Max): -58.5m/s

First frame :
KE7DJD at 2026-08-30 17:06:24 at altitude 1594m (OG: 1552m)
Last frame :
KE7DJD at 2026-08-30 19:09:39 at altitude 4970m (OG: 4928m)

Flighttime : 2h3m15s
Ascent time : 1h41m12s
Descent time : 22m3s
Uptime : -
Killtimer : 8h8m

Distance (Straight line distance): 58km

Distance (Route):


Frames : 347


Measurement :

Temperature : -6.8°C
Humidity : 7.6%
Pressure : 0hPa


Vertical profile (SkewT) :


Elevation profile :



Receiving stations :


Receiver Frames First received Last received
KE7DJD 347 2026-08-30 17:06:24 2026-08-30 19:09:39

Share per receiver :



All frames :


Receiver Date Latitude Longitude Direction Speed Altitude Climb Temperature Humidity Pressure Voltage Killtimer Uptime BKT XDATA
KE7DJD2026-08-30 19:09:3943.49599-115.49780106°42km/h4970m-16.4m/s-6.8°C7.6%0hPa0V08:08:0000:00:0000:00:00
KE7DJD2026-08-30 19:09:1743.49648-115.50110106°44km/h5304m-14.7m/s-9.1°C5.7%0hPa0V08:09:0000:00:0000:00:00
KE7DJD2026-08-30 19:08:5643.49683-115.50422101°47km/h5586m-12.8m/s-10.1°C7.6%0hPa0V08:09:0000:00:0000:00:00
KE7DJD2026-08-30 19:08:3543.49730-115.50764102°51km/h5816m-10.5m/s-11.0°C11.2%0hPa0V08:10:0000:00:0000:00:00
KE7DJD2026-08-30 19:08:1543.49767-115.5113095°55km/h6008m-11.5m/s-11.9°C10.3%0hPa0V08:10:0000:00:0000:00:00
KE7DJD2026-08-30 19:07:5443.49788-115.5154097°58km/h6191m-8.9m/s-13.1°C11.9%0hPa0V08:11:0000:00:0000:00:00
KE7DJD2026-08-30 19:07:3443.49828-115.51937102°60km/h6386m-9.7m/s-14.7°C8.0%0hPa0V08:11:0000:00:0000:00:00
KE7DJD2026-08-30 19:07:1343.49887-115.52367103°55km/h6634m-13.6m/s-16.4°C7.6%0hPa0V08:11:0000:00:0000:00:00
KE7DJD2026-08-30 19:06:5243.49952-115.52773103°58km/h6929m-15.8m/s-18.3°C33.9%0hPa0V08:12:0000:00:0000:00:00
KE7DJD2026-08-30 19:06:3243.50006-115.5318899°66km/h7183m-11.4m/s-20.2°C38.6%0hPa0V08:12:0000:00:0000:00:00
KE7DJD2026-08-30 19:06:1143.50052-115.5369998°75km/h7393m-9.8m/s-21.9°C44.4%0hPa0V08:12:0000:00:0000:00:00
KE7DJD2026-08-30 19:05:5143.50119-115.54192102°71km/h7601m-12.5m/s-23.4°C39.3%0hPa0V08:12:0000:00:0000:00:00
KE7DJD2026-08-30 19:05:3143.50188-115.54666105°62km/h7855m-12.4m/s-25.4°C41.4%0hPa0V08:12:0000:00:0000:00:00
KE7DJD2026-08-30 19:05:1043.50267-115.55067108°60km/h8124m-14.1m/s-27.4°C43.1%0hPa0V08:13:0000:00:0000:00:00
KE7DJD2026-08-30 19:04:4943.50372-115.55476116°58km/h8434m-14.5m/s-29.5°C36.6%0hPa0V08:13:0000:00:0000:00:00
KE7DJD2026-08-30 19:04:2943.50550-115.55865123°69km/h8775m-16.8m/s-32.0°C35.0%0hPa0V08:14:0000:00:0000:00:00
KE7DJD2026-08-30 19:04:0943.50741-115.56252128°68km/h9106m-14.7m/s-34.8°C37.4%0hPa0V08:14:0000:00:0000:00:00
KE7DJD2026-08-30 19:03:4843.50959-115.56633132°68km/h9352m-12.3m/s-36.8°C33.5%0hPa0V08:14:0000:00:0000:00:00
KE7DJD2026-08-30 19:03:2743.51200-115.57001134°69km/h9692m-19.6m/s-39.7°C39.5%0hPa0V08:15:0000:00:0000:00:00
KE7DJD2026-08-30 19:03:0643.51466-115.57373137°75km/h10080m-18.5m/s-43.0°C27.0%0hPa0V08:15:0000:00:0000:00:00
KE7DJD2026-08-30 19:02:4543.51770-115.57773138°82km/h10446m-17.2m/s-46.2°C34.8%0hPa0V08:16:0000:00:0000:00:00
KE7DJD2026-08-30 19:02:2443.52100-115.58185138°84km/h10775m-14.6m/s-49.2°C35.9%0hPa0V08:16:0000:00:0000:00:00
KE7DJD2026-08-30 19:02:0443.52401-115.58586137°77km/h11089m-16.1m/s-51.7°C31.2%0hPa0V08:16:0000:00:0000:00:00
KE7DJD2026-08-30 19:01:4343.52687-115.58999134°78km/h11446m-19.9m/s-54.3°C30.8%0hPa0V08:17:0000:00:0000:00:00
KE7DJD2026-08-30 19:01:2343.52875-115.59386115°60km/h11847m-18.6m/s-55.4°C23.7%0hPa0V08:17:0000:00:0000:00:00
KE7DJD2026-08-30 19:01:0243.53011-115.59779116°60km/h12213m-15.6m/s-56.0°C14.6%0hPa0V08:17:0000:00:0000:00:00
KE7DJD2026-08-30 19:00:4243.53102-115.60217100°77km/h12525m-15.4m/s-55.3°C7.3%0hPa0V08:17:0000:00:0000:00:00
KE7DJD2026-08-30 19:00:2143.53189-115.60655104°44km/h12865m-16.4m/s-55.7°C5.2%0hPa0V08:17:0000:00:0000:00:00
KE7DJD2026-08-30 19:00:0043.53213-115.61048101°64km/h13202m-15.6m/s-55.9°C3.6%0hPa0V08:18:0000:00:0000:00:00
KE7DJD2026-08-30 18:59:3943.53231-115.6154194°69km/h13540m-14.7m/s-55.2°C2.9%0hPa0V08:18:0000:00:0000:00:00
KE7DJD2026-08-30 18:59:1843.53242-115.6198386°60km/h13903m-17.3m/s-54.4°C2.2%0hPa0V08:19:0000:00:0000:00:00
KE7DJD2026-08-30 18:58:5743.53179-115.6238579°62km/h14282m-17.7m/s-55.3°C2.0%0hPa0V08:19:0000:00:0000:00:00
KE7DJD2026-08-30 18:58:3743.53134-115.6279582°55km/h14640m-17.4m/s-54.9°C1.7%0hPa0V08:19:0000:00:0000:00:00
KE7DJD2026-08-30 18:58:1643.53020-115.6318069°58km/h14953m-14.9m/s-56.2°C1.9%0hPa0V08:20:0000:00:0000:00:00
KE7DJD2026-08-30 18:57:5543.52924-115.6355471°47km/h15265m-15.3m/s-55.7°C1.7%0hPa0V08:20:0000:00:0000:00:00
KE7DJD2026-08-30 18:57:3443.52795-115.6391258°62km/h15585m-15.3m/s-56.4°C1.8%0hPa0V08:21:0000:00:0000:00:00
KE7DJD2026-08-30 18:57:1443.52645-115.6430070°58km/h15899m-15.7m/s-56.3°C1.8%0hPa0V08:21:0000:00:0000:00:00
KE7DJD2026-08-30 18:56:5243.52538-115.6470170°60km/h16250m-15.9m/s-55.5°C1.7%0hPa0V08:21:0000:00:0000:00:00
KE7DJD2026-08-30 18:56:3143.52431-115.6512969°55km/h16604m-16.8m/s-54.7°C1.5%0hPa0V08:22:0000:00:0000:00:00
KE7DJD2026-08-30 18:56:1143.52337-115.6545984°46km/h16953m-18.0m/s-55.0°C1.5%0hPa0V08:22:0000:00:0000:00:00
KE7DJD2026-08-30 18:55:5143.52286-115.6567040°29km/h17344m-22.2m/s-54.0°C1.3%0hPa0V08:23:0000:00:0000:00:00
KE7DJD2026-08-30 18:55:3043.52146-115.6589056°38km/h17806m-21.8m/s-53.7°C1.2%0hPa0V08:23:0000:00:0000:00:00
KE7DJD2026-08-30 18:55:0843.52040-115.6606170°20km/h18270m-23.1m/s-56.4°C1.4%0hPa0V08:23:0000:00:0000:00:00
KE7DJD2026-08-30 18:54:4843.52014-115.6616258°16km/h18702m-21.7m/s-57.3°C1.6%0hPa0V08:23:0000:00:0000:00:00
KE7DJD2026-08-30 18:54:2743.52034-115.66251201°13km/h19187m-21.6m/s-54.5°C1.2%0hPa0V08:23:0000:00:0000:00:00
KE7DJD2026-08-30 18:54:0643.52015-115.66162326°27km/h19660m-19.0m/s-56.6°C1.4%0hPa0V08:24:0000:00:0000:00:00
KE7DJD2026-08-30 18:53:4643.51915-115.6613515°26km/h20121m-21.5m/s-56.6°C1.4%0hPa0V08:24:0000:00:0000:00:00
KE7DJD2026-08-30 18:53:2543.51864-115.66178255°9km/h20604m-22.6m/s-55.0°C1.3%0hPa0V08:25:0000:00:0000:00:00
KE7DJD2026-08-30 18:53:0543.51794-115.66112322°15km/h21134m-27.7m/s-54.8°C1.3%0hPa0V08:25:0000:00:0000:00:00
KE7DJD2026-08-30 18:52:4443.51712-115.66029361°20km/h21717m-29.6m/s-53.0°C1.1%0hPa0V08:25:0000:00:0000:00:00
KE7DJD2026-08-30 18:52:2443.51633-115.6599713km/h22284m-30.4m/s-53.3°C1.1%0hPa0V08:26:0000:00:0000:00:00
KE7DJD2026-08-30 18:52:0443.51571-115.6601358°16km/h22890m-29.8m/s-53.5°C1.1%0hPa0V08:26:0000:00:0000:00:00
KE7DJD2026-08-30 18:51:4243.51579-115.65993278°27km/h23555m-31.2m/s-52.6°C1.1%0hPa0V08:27:0000:00:0000:00:00
KE7DJD2026-08-30 18:51:2243.51489-115.65828327°26km/h24214m-32.9m/s-51.3°C1.0%0hPa0V08:27:0000:00:0000:00:00
KE7DJD2026-08-30 18:51:0143.51439-115.65794295°5km/h24959m-37.2m/s-48.9°C0.8%0hPa0V08:27:0000:00:0000:00:00
KE7DJD2026-08-30 18:50:4043.51336-115.6579210°22km/h25749m-35.7m/s-47.6°C0.7%0hPa0V08:28:0000:00:0000:00:00
KE7DJD2026-08-30 18:50:1943.51282-115.65870154°4km/h26512m-35.4m/s-47.5°C0.8%0hPa0V08:28:0000:00:0000:00:00
KE7DJD2026-08-30 18:49:5843.51305-115.65904221°16km/h27308m-43.0m/s-46.3°C0.7%0hPa0V08:29:0000:00:0000:00:00
KE7DJD2026-08-30 18:49:3843.51356-115.65778268°13km/h28141m-45.1m/s-45.7°C0.7%0hPa0V08:29:0000:00:0000:00:00
KE7DJD2026-08-30 18:48:5843.51264-115.65578299°27km/h30019m-47.4m/s-44.1°C0.6%0hPa0V00:00:0000:00:0000:00:00
KE7DJD2026-08-30 18:48:3743.51133-115.65391353°37km/h30994m-50.7m/s-42.0°C0.6%0hPa0V00:00:0000:00:0000:00:00
KE7DJD2026-08-30 18:48:1743.50999-115.65327340°22km/h32011m-58.5m/s-39.4°C0.5%0hPa0V00:00:0000:00:0000:00:00
KE7DJD2026-08-30 18:47:5743.50960-115.65324223°18km/h32993m-46.7m/s-34.9°C0.4%0hPa0V00:00:0000:00:0000:00:00
KE7DJD2026-08-30 18:47:3643.50962-115.6528830°22km/h33404m7.6m/s-35.9°C0.4%0hPa0V00:00:0000:00:0000:00:00
KE7DJD2026-08-30 18:47:1643.50940-115.65293136°15km/h33280m1.2m/s-35.6°C0.4%0hPa0V00:00:0000:00:0000:00:00
KE7DJD2026-08-30 18:46:5543.50940-115.65269282°9km/h33149m6.8m/s-35.8°C0.4%0hPa0V00:00:0000:00:0000:00:00
KE7DJD2026-08-30 18:46:3443.50962-115.65253219°31km/h33025m2.3m/s-35.5°C0.4%0hPa0V00:00:0000:00:0000:00:00
KE7DJD2026-08-30 18:46:1443.51008-115.65294114°22km/h32900m8.5m/s-36.6°C0.4%0hPa0V00:00:0000:00:0000:00:00
KE7DJD2026-08-30 18:45:5343.50995-115.6533052°33km/h32776m5.3m/s-38.7°C0.5%0hPa0V00:00:0000:00:0000:00:00
KE7DJD2026-08-30 18:45:3243.50949-115.6534986°29km/h32654m7.1m/s-39.5°C0.5%0hPa0V00:00:0000:00:0000:00:00
KE7DJD2026-08-30 18:45:1243.50922-115.65314316°16km/h32537m5.1m/s-39.4°C0.5%0hPa0V00:00:0000:00:0000:00:00
KE7DJD2026-08-30 18:44:4443.50747-115.65254335°58km/h32350m3.3m/s-41.1°C0.5%0hPa0V00:00:0000:00:0000:00:00
KE7DJD2026-08-30 18:44:0343.50478-115.65147137°33km/h32071m9.0m/s-40.4°C0.5%0hPa0V00:00:0000:00:0000:00:00
KE7DJD2026-08-30 18:43:3343.50325-115.65073185°11km/h31868m9.4m/s-40.9°C0.5%0hPa0V00:00:0000:00:0000:00:00
KE7DJD2026-08-30 18:43:1243.50196-115.6499134°53km/h31722m8.8m/s-40.8°C0.5%0hPa0V00:00:0000:00:0000:00:00
KE7DJD2026-08-30 18:42:5243.50097-115.64902244°44km/h31589m2.6m/s-41.0°C0.5%0hPa0V00:00:0000:00:0000:00:00
KE7DJD2026-08-30 18:42:3243.50019-115.64786208°27km/h31456m9.7m/s-41.9°C0.5%0hPa0V00:00:0000:00:0000:00:00
KE7DJD2026-08-30 18:42:1143.49893-115.6471651°66km/h31318m3.8m/s-42.3°C0.6%0hPa0V00:00:0000:00:0000:00:00
KE7DJD2026-08-30 18:41:5143.49721-115.64720310°33km/h31196m0.4m/s-43.3°C0.6%0hPa0V00:00:0000:00:0000:00:00
KE7DJD2026-08-30 18:41:3143.49489-115.64689326°5km/h31067m11.2m/s-43.0°C0.6%0hPa0V00:00:0000:00:0000:00:00
KE7DJD2026-08-30 18:41:1143.49279-115.6456412°62km/h30935m7.5m/s-43.0°C0.6%0hPa0V00:00:0000:00:0000:00:00
KE7DJD2026-08-30 18:40:5043.49113-115.64413327°80km/h30805m8.9m/s-43.8°C0.6%0hPa0V00:00:0000:00:0000:00:00
KE7DJD2026-08-30 18:40:2843.48957-115.6420642km/h30657m10.9m/s-43.5°C0.6%0hPa0V00:00:0000:00:0000:00:00
KE7DJD2026-08-30 18:40:0743.48883-115.63932289°73km/h30514m4.9m/s-43.4°C0.6%0hPa0V00:00:0000:00:0000:00:00
KE7DJD2026-08-30 18:39:4743.48832-115.63585228°62km/h30385m10.6m/s-44.5°C0.7%0hPa0V00:00:0000:00:0000:00:00
KE7DJD2026-08-30 18:39:2243.48791-115.6329085°20km/h30220m9.3m/s-45.0°C0.7%0hPa0V00:00:0000:00:0000:00:00
KE7DJD2026-08-30 18:39:0043.48734-115.6316330°51km/h30073m2.9m/s-45.1°C0.7%0hPa0V00:00:0000:00:0000:00:00
KE7DJD2026-08-30 18:38:3943.48633-115.63081255°31km/h29941m4.9m/s-44.3°C0.7%0hPa0V00:00:0000:00:0000:00:00
KE7DJD2026-08-30 18:38:1643.48451-115.6294230°37km/h29794m11.3m/s-44.0°C0.7%0hPa0V00:00:0000:00:0000:00:00
KE7DJD2026-08-30 18:37:5543.48299-115.62802357°57km/h29661m4.1m/s-44.1°C0.7%0hPa0V00:00:0000:00:0000:00:00
KE7DJD2026-08-30 18:37:3543.48240-115.62642345°55km/h29526m3.3m/s-43.5°C0.7%0hPa0V00:00:0000:00:0000:00:00
KE7DJD2026-08-30 18:37:1443.48248-115.62447144°22km/h29383m1.7m/s-43.5°C0.7%0hPa0V00:00:0000:00:0000:00:00
KE7DJD2026-08-30 18:36:5443.48324-115.62273176°46km/h29245m2.6m/s-43.0°C0.6%0hPa0V00:00:0000:00:0000:00:00
KE7DJD2026-08-30 18:36:3143.48386-115.62140227°46km/h29097m6.9m/s-43.7°C0.7%0hPa0V00:00:0000:00:0000:00:00
KE7DJD2026-08-30 18:36:1043.48433-115.62083216°49km/h28960m6.5m/s-44.3°C0.7%0hPa0V00:00:0000:00:0000:00:00
KE7DJD2026-08-30 18:35:4843.48440-115.62029231°27km/h28825m10.0m/s-44.9°C0.7%0hPa0V00:00:0000:00:0000:00:00
KE7DJD2026-08-30 18:35:2043.48452-115.61980230°51km/h28642m3.3m/s-45.4°C0.7%0hPa0V00:00:0000:00:0000:00:00
KE7DJD2026-08-30 18:34:4943.48372-115.6184436°38km/h28449m2.0m/s-46.0°C0.7%0hPa0V00:00:0000:00:0000:00:00
KE7DJD2026-08-30 18:34:2843.48326-115.61733114°33km/h28317m7.8m/s-46.8°C0.8%0hPa0V00:00:0000:00:0000:00:00
KE7DJD2026-08-30 18:34:0843.48303-115.6160652°15km/h28196m6.6m/s-46.7°C0.8%0hPa0V00:00:0000:00:0000:00:00
KE7DJD2026-08-30 18:33:4843.48302-115.61456130°7km/h28069m5.7m/s-46.5°C0.8%0hPa0V00:00:0000:00:0000:00:00
KE7DJD2026-08-30 18:33:2343.48347-115.61197239°69km/h27913m3.3m/s-46.5°C0.8%0hPa0V00:00:0000:00:0000:00:00
KE7DJD2026-08-30 18:32:4843.48485-115.60905235°60km/h27693m6.0m/s-46.2°C0.8%0hPa0V00:00:0000:00:0000:00:00
KE7DJD2026-08-30 18:32:1843.48578-115.60718189°51km/h27507m4.7m/s-46.0°C0.8%0hPa0V00:00:0000:00:0000:00:00
KE7DJD2026-08-30 18:31:5743.48617-115.60666156°31km/h27370m3.2m/s-46.2°C0.8%0hPa0V00:00:0000:00:0000:00:00
KE7DJD2026-08-30 18:31:3543.48654-115.6063480°16km/h27227m8.7m/s-46.0°C0.8%0hPa0V00:00:0000:00:0000:00:00
KE7DJD2026-08-30 18:31:1143.48668-115.60635226°33km/h27078m7.9m/s-45.7°C0.8%0hPa0V00:00:0000:00:0000:00:00
KE7DJD2026-08-30 18:30:5043.48671-115.60678167°38km/h26948m8.5m/s-45.5°C0.8%0hPa0V00:00:0000:00:0000:00:00
KE7DJD2026-08-30 18:30:3043.48644-115.60722195°27km/h26829m2.5m/s-45.3°C0.8%0hPa0V00:00:0000:00:0000:00:00
KE7DJD2026-08-30 18:30:0943.48588-115.60802196°24km/h26704m0.5m/s-45.3°C0.8%0hPa0V00:00:0000:00:0000:00:00
KE7DJD2026-08-30 18:29:4843.48529-115.60847178°31km/h26582m1.4m/s-46.2°C0.8%0hPa0V00:00:0000:00:0000:00:00
KE7DJD2026-08-30 18:29:2743.48517-115.60878190°29km/h26462m-0.8m/s-47.3°C0.8%0hPa0V00:00:0000:00:0000:00:00
KE7DJD2026-08-30 18:29:0743.48523-115.60936152°29km/h26342m-0.2m/s-47.7°C0.9%0hPa0V00:00:0000:00:0000:00:00
KE7DJD2026-08-30 18:28:4643.48485-115.61066116°22km/h26222m4.8m/s-48.2°C0.9%0hPa0V00:00:0000:00:0000:00:00
KE7DJD2026-08-30 18:28:2543.48377-115.61170102°11km/h26090m1.4m/s-48.4°C0.9%0hPa0V00:00:0000:00:0000:00:00
KE7DJD2026-08-30 18:28:0543.48268-115.61253187°20km/h25963m4.0m/s-48.3°C0.9%0hPa0V00:00:0000:00:0000:00:00
KE7DJD2026-08-30 18:27:4443.48186-115.61286224°16km/h25830m1.2m/s-47.9°C0.9%0hPa0V00:00:0000:00:0000:00:00
KE7DJD2026-08-30 18:27:2443.48086-115.61330320°4km/h25698m4.6m/s-47.2°C0.8%0hPa0V00:00:0000:00:0000:00:00
KE7DJD2026-08-30 18:27:0443.47963-115.6137171°24km/h25571m2.0m/s-48.5°C0.9%0hPa0V00:00:0000:00:0000:00:00
KE7DJD2026-08-30 18:26:4343.47843-115.6138451°35km/h25439m6.3m/s-48.5°C0.9%0hPa0V00:00:0000:00:0000:00:00
KE7DJD2026-08-30 18:26:2343.47794-115.6138570°27km/h25316m4.8m/s-48.8°C0.9%0hPa0V00:00:0000:00:0000:00:00
KE7DJD2026-08-30 18:25:5743.47754-115.61351101°26km/h25158m4.3m/s-49.3°C1.0%0hPa0V00:00:0000:00:0000:00:00
KE7DJD2026-08-30 18:25:3243.47729-115.61342244°15km/h25016m8.0m/s-49.8°C1.0%0hPa0V00:00:0000:00:0000:00:00
KE7DJD2026-08-30 18:24:3143.47675-115.61309171°18km/h24647m5.8m/s-52.1°C1.0%0hPa0V00:00:0000:00:0000:00:00
KE7DJD2026-08-30 18:24:0243.47645-115.61236285°40km/h24476m2.9m/s-52.2°C1.1%0hPa0V00:00:0000:00:0000:00:00
KE7DJD2026-08-30 18:23:4143.47548-115.6108413km/h24344m1.3m/s-52.0°C1.1%0hPa0V00:00:0000:00:0000:00:00
KE7DJD2026-08-30 18:23:2143.47493-115.6097538°18km/h24222m3.9m/s-52.6°C1.1%0hPa0V00:00:0000:00:0000:00:00
KE7DJD2026-08-30 18:23:0143.47424-115.60806345°33km/h24096m1.5m/s-53.0°C1.1%0hPa0V00:00:0000:00:0000:00:00
KE7DJD2026-08-30 18:22:4043.47345-115.6061931km/h23980m3.1m/s-53.3°C1.2%0hPa0V00:00:0000:00:0000:00:00
KE7DJD2026-08-30 18:22:1943.47271-115.60346297°46km/h23855m7.2m/s-53.2°C1.2%0hPa0V00:00:0000:00:0000:00:00
KE7DJD2026-08-30 18:21:5943.47236-115.60078269°49km/h23736m6.8m/s-52.7°C1.2%0hPa0V00:00:0000:00:0000:00:00
KE7DJD2026-08-30 18:21:3843.47234-115.59845262°49km/h23619m1.7m/s-52.6°C1.1%0hPa0V00:00:0000:00:0000:00:00
KE7DJD2026-08-30 18:21:1843.47270-115.59714321°15km/h23507m6.8m/s-52.5°C1.1%0hPa0V00:00:0000:00:0000:00:00
KE7DJD2026-08-30 18:20:5843.47337-115.5965013km/h23385m0.7m/s-53.2°C1.2%0hPa0V00:00:0000:00:0000:00:00
KE7DJD2026-08-30 18:20:3543.47389-115.59666197°22km/h23266m2.9m/s-52.8°C1.2%0hPa0V00:00:0000:00:0000:00:00
KE7DJD2026-08-30 18:20:1343.47389-115.5975662°46km/h23140m1.8m/s-52.7°C1.1%0hPa0V00:00:0000:00:0000:00:00
KE7DJD2026-08-30 18:19:5243.47337-115.5984462°16km/h23016m6.1m/s-53.6°C1.2%0hPa0V00:00:0000:00:0000:00:00
KE7DJD2026-08-30 18:19:3243.47280-115.5990650°16km/h22906m5.0m/s-53.9°C1.2%0hPa0V00:00:0000:00:0000:00:00
KE7DJD2026-08-30 18:19:1143.47218-115.5993610°26km/h22787m8.2m/s-54.1°C1.3%0hPa0V00:00:0000:00:0000:00:00
KE7DJD2026-08-30 18:18:5143.47142-115.5993431km/h22674m8.6m/s-54.6°C1.3%0hPa0V00:00:0000:00:0000:00:00
KE7DJD2026-08-30 18:18:3043.47059-115.59904352°37km/h22550m5.0m/s-53.7°C1.3%0hPa0V00:00:0000:00:0000:00:00
KE7DJD2026-08-30 18:18:0943.46965-115.59848246°27km/h22435m5.3m/s-53.8°C1.3%0hPa0V00:00:0000:00:0000:00:00
KE7DJD2026-08-30 18:17:4843.46865-115.5974935km/h22308m3.1m/s-53.2°C1.3%0hPa0V00:00:0000:00:0000:00:00
KE7DJD2026-08-30 18:17:2743.46760-115.59665266°7km/h22195m1.0m/s-52.4°C1.2%0hPa0V00:00:0000:00:0000:00:00
KE7DJD2026-08-30 18:17:0743.46680-115.59626325°22km/h22082m7.0m/s-52.2°C1.2%0hPa0V00:00:0000:00:0000:00:00
KE7DJD2026-08-30 18:16:4743.46616-115.595870km/h21971m2.8m/s-51.9°C1.2%0hPa0V00:00:0000:00:0000:00:00
KE7DJD2026-08-30 18:16:2743.46532-115.59492330°29km/h21857m3.4m/s-52.0°C1.2%0hPa0V00:00:0000:00:0000:00:00
KE7DJD2026-08-30 18:16:0643.46450-115.59423356°4km/h21744m7.9m/s-52.5°C1.2%0hPa0V00:00:0000:00:0000:00:00
KE7DJD2026-08-30 18:15:4543.46353-115.59399357°38km/h21625m6.6m/s-52.6°C1.2%0hPa0V00:00:0000:00:0000:00:00
KE7DJD2026-08-30 18:15:2543.46245-115.59325268°26km/h21508m5.9m/s-54.1°C1.3%0hPa0V00:00:0000:00:0000:00:00
KE7DJD2026-08-30 18:15:0443.46214-115.59203306°20km/h21384m4.2m/s-54.5°C1.3%0hPa0V00:00:0000:00:0000:00:00
KE7DJD2026-08-30 18:14:4443.46230-115.59099243°24km/h21274m3.4m/s-54.7°C1.4%0hPa0V00:00:0000:00:0000:00:00
KE7DJD2026-08-30 18:14:2443.46206-115.59005292°22km/h21155m5.9m/s-55.0°C1.4%0hPa0V00:00:0000:00:0000:00:00
KE7DJD2026-08-30 18:14:0243.46141-115.5895841°15km/h21056m5.6m/s-55.6°C1.4%0hPa0V00:00:0000:00:0000:00:00
KE7DJD2026-08-30 18:13:4143.46046-115.58900319°22km/h20940m5.6m/s-55.8°C1.5%0hPa0V00:00:0000:00:0000:00:00
KE7DJD2026-08-30 18:13:2043.46001-115.58775293°31km/h20824m6.9m/s-54.9°C1.4%0hPa0V00:00:0000:00:0000:00:00
KE7DJD2026-08-30 18:12:5943.45989-115.58632243°26km/h20711m5.5m/s-55.4°C1.4%0hPa0V00:00:0000:00:0000:00:00
KE7DJD2026-08-30 18:12:3843.45996-115.58569162°15km/h20597m4.9m/s-55.9°C1.4%0hPa0V00:00:0000:00:0000:00:00
KE7DJD2026-08-30 18:12:1743.45967-115.5861078°27km/h20486m6.6m/s-56.8°C1.6%0hPa0V00:00:0000:00:0000:00:00
KE7DJD2026-08-30 18:11:5643.45917-115.5868944°18km/h20378m7.0m/s-56.6°C1.5%0hPa0V00:00:0000:00:0000:00:00
KE7DJD2026-08-30 18:11:3643.45824-115.5877578°11km/h20270m6.8m/s-56.3°C1.5%0hPa0V00:00:0000:00:0000:00:00
KE7DJD2026-08-30 18:11:1543.45688-115.58798350°31km/h20156m4.5m/s-56.8°C1.5%0hPa0V00:00:0000:00:0000:00:00
KE7DJD2026-08-30 18:10:5443.45580-115.58770199°7km/h20035m2.5m/s-56.4°C1.5%0hPa0V00:00:0000:00:0000:00:00
KE7DJD2026-08-30 18:10:3343.45490-115.5872715°24km/h19924m4.9m/s-56.4°C1.5%0hPa0V00:00:0000:00:0000:00:00
KE7DJD2026-08-30 18:10:1043.45359-115.5863448°16km/h19797m4.3m/s-55.6°C1.5%0hPa0V00:00:0000:00:0000:00:00
KE7DJD2026-08-30 18:09:4943.45248-115.58521294°29km/h19687m6.6m/s-55.6°C1.4%0hPa0V00:00:0000:00:0000:00:00
KE7DJD2026-08-30 18:09:2943.45179-115.58380315°7km/h19582m6.5m/s-55.9°C1.5%0hPa0V00:00:0000:00:0000:00:00
KE7DJD2026-08-30 18:09:0843.45152-115.58237338°13km/h19473m4.0m/s-55.0°C1.4%0hPa0V00:00:0000:00:0000:00:00
KE7DJD2026-08-30 18:08:4943.45151-115.58105136°26km/h19350m3.9m/s-54.5°C1.4%0hPa0V00:00:0000:00:0000:00:00
KE7DJD2026-08-30 18:08:2743.45185-115.58040200°37km/h19220m5.1m/s-54.6°C1.4%0hPa0V00:00:0000:00:0000:00:00
KE7DJD2026-08-30 18:08:0743.45276-115.5806299°13km/h19114m3.8m/s-54.9°C1.4%0hPa0V00:00:0000:00:0000:00:00
KE7DJD2026-08-30 18:07:4643.45347-115.5815381°20km/h19009m4.7m/s-54.9°C1.4%0hPa0V00:00:0000:00:0000:00:00
KE7DJD2026-08-30 18:07:2543.45371-115.5827686°35km/h18907m6.3m/s-56.6°C1.5%0hPa0V00:00:0000:00:0000:00:00
KE7DJD2026-08-30 18:07:0543.45347-115.5844298°33km/h18810m6.6m/s-57.7°C1.6%0hPa0V00:00:0000:00:0000:00:00
KE7DJD2026-08-30 18:06:4543.45321-115.5857122°13km/h18703m4.1m/s-57.4°C1.7%0hPa0V00:00:0000:00:0000:00:00
KE7DJD2026-08-30 18:06:2543.45306-115.5864569°18km/h18594m6.2m/s-56.7°C1.6%0hPa0V00:00:0000:00:0000:00:00
KE7DJD2026-08-30 18:06:0443.45314-115.58732119°33km/h18490m4.3m/s-56.3°C1.6%0hPa0V00:00:0000:00:0000:00:00
KE7DJD2026-08-30 18:05:4343.45324-115.5885092°35km/h18380m6.2m/s-56.3°C1.5%0hPa0V00:00:0000:00:0000:00:00
KE7DJD2026-08-30 18:05:2343.45324-115.5901072°18km/h18276m4.5m/s-56.6°C1.6%0hPa0V00:00:0000:00:0000:00:00
KE7DJD2026-08-30 18:05:0243.45257-115.5919642°29km/h18168m5.2m/s-56.1°C1.5%0hPa0V00:00:0000:00:0000:00:00
KE7DJD2026-08-30 18:04:4243.45156-115.5937026°31km/h18063m7.0m/s-55.7°C1.5%0hPa0V00:00:0000:00:0000:00:00
KE7DJD2026-08-30 18:04:2143.45006-115.5953061°40km/h17959m4.1m/s-55.1°C1.5%0hPa0V00:00:0000:00:0000:00:00
KE7DJD2026-08-30 18:04:0043.44865-115.5968926°26km/h17855m4.0m/s-54.3°C1.4%0hPa0V00:00:0000:00:0000:00:00
KE7DJD2026-08-30 18:03:4043.44766-115.5990860°49km/h17757m3.4m/s-54.1°C1.5%0hPa0V00:00:0000:00:0000:00:00
KE7DJD2026-08-30 18:03:2043.44631-115.6013355°57km/h17654m4.7m/s-54.7°C1.5%0hPa0V00:00:0000:00:0000:00:00
KE7DJD2026-08-30 18:03:0043.44487-115.6036545°64km/h17548m4.3m/s-55.3°C1.6%0hPa0V00:00:0000:00:0000:00:00
KE7DJD2026-08-30 18:02:3943.44350-115.6052543°42km/h17443m5.5m/s-54.7°C1.5%0hPa0V00:00:0000:00:0000:00:00
KE7DJD2026-08-30 18:02:1943.44225-115.6066083°11km/h17343m2.1m/s-53.8°C1.5%0hPa0V00:00:0000:00:0000:00:00
KE7DJD2026-08-30 18:01:5843.44111-115.6078657°35km/h17237m5.2m/s-53.4°C1.4%0hPa0V00:00:0000:00:0000:00:00
KE7DJD2026-08-30 18:01:3743.44061-115.6096880°49km/h17127m5.0m/s-53.5°C1.4%0hPa0V00:00:0000:00:0000:00:00
KE7DJD2026-08-30 18:01:1643.44004-115.6127579°51km/h17024m5.1m/s-54.7°C1.5%0hPa0V00:00:0000:00:0000:00:00
KE7DJD2026-08-30 18:00:5543.43941-115.6166471°51km/h16917m6.8m/s-55.0°C1.6%0hPa0V00:00:0000:00:0000:00:00
KE7DJD2026-08-30 18:00:3543.43842-115.6205473°68km/h16813m5.9m/s-54.6°C1.6%0hPa0V00:00:0000:00:0000:00:00
KE7DJD2026-08-30 18:00:1443.43696-115.6247956°64km/h16710m5.8m/s-54.2°C1.5%0hPa0V00:00:0000:00:0000:00:00
KE7DJD2026-08-30 17:59:5343.43578-115.6292461°66km/h16604m4.0m/s-53.9°C1.6%0hPa0V00:00:0000:00:0000:00:00
KE7DJD2026-08-30 17:59:3343.43464-115.6332962°55km/h16506m6.6m/s-53.9°C1.5%0hPa0V00:00:0000:00:0000:00:00
KE7DJD2026-08-30 17:59:1243.43353-115.6376067°69km/h16401m6.5m/s-56.3°C1.8%0hPa0V00:00:0000:00:0000:00:00
KE7DJD2026-08-30 17:58:5243.43226-115.6416970°66km/h16303m5.6m/s-55.9°C1.8%0hPa0V00:00:0000:00:0000:00:00
KE7DJD2026-08-30 17:58:3243.43098-115.6454173°47km/h16206m3.3m/s-55.6°C1.9%0hPa0V00:00:0000:00:0000:00:00
KE7DJD2026-08-30 17:58:1143.42976-115.6488457°57km/h16103m6.6m/s-55.5°C1.9%0hPa0V00:00:0000:00:0000:00:00
KE7DJD2026-08-30 17:57:5143.42856-115.6520453°55km/h16007m5.4m/s-55.4°C1.8%0hPa0V00:00:0000:00:0000:00:00
KE7DJD2026-08-30 17:57:3043.42774-115.6558277°64km/h15906m4.0m/s-55.9°C1.9%0hPa0V00:00:0000:00:0000:00:00
KE7DJD2026-08-30 17:57:0943.42656-115.6600268°62km/h15806m5.3m/s-55.9°C1.9%0hPa0V00:00:0000:00:0000:00:00
KE7DJD2026-08-30 17:56:4843.42545-115.6639366°57km/h15703m5.0m/s-56.5°C1.9%0hPa0V00:00:0000:00:0000:00:00
KE7DJD2026-08-30 17:56:2843.42401-115.6678349°69km/h15608m4.7m/s-56.5°C2.0%0hPa0V00:00:0000:00:0000:00:00
KE7DJD2026-08-30 17:56:0743.42238-115.6715155°68km/h15505m4.6m/s-55.8°C1.9%0hPa0V00:00:0000:00:0000:00:00
KE7DJD2026-08-30 17:55:4743.42108-115.6748556°66km/h15410m3.6m/s-55.6°C1.9%0hPa0V00:00:0000:00:0000:00:00
KE7DJD2026-08-30 17:55:2643.41975-115.6785168°60km/h15317m3.4m/s-55.5°C1.9%0hPa0V00:00:0000:00:0000:00:00
KE7DJD2026-08-30 17:55:0543.41866-115.6819557°55km/h15221m4.5m/s-55.2°C1.9%0hPa0V00:00:0000:00:0000:00:00
KE7DJD2026-08-30 17:54:4543.41773-115.6852673°57km/h15125m5.2m/s-54.7°C1.9%0hPa0V00:00:0000:00:0000:00:00
KE7DJD2026-08-30 17:54:2443.41680-115.6888084°47km/h15029m5.1m/s-54.8°C1.9%0hPa0V00:00:0000:00:0000:00:00
KE7DJD2026-08-30 17:54:0343.41597-115.6925180°55km/h14937m5.0m/s-55.3°C2.0%0hPa0V00:00:0000:00:0000:00:00
KE7DJD2026-08-30 17:53:4243.41500-115.6965665°62km/h14835m6.3m/s-55.1°C1.9%0hPa0V00:00:0000:00:0000:00:00
KE7DJD2026-08-30 17:53:2243.41363-115.7004267°71km/h14737m4.9m/s-54.8°C2.0%0hPa0V00:00:0000:00:0000:00:00
KE7DJD2026-08-30 17:53:0243.41233-115.7042052°47km/h14630m5.2m/s-54.4°C2.0%0hPa0V00:00:0000:00:0000:00:00
KE7DJD2026-08-30 17:52:4143.41136-115.7083084°66km/h14509m10.9m/s-53.6°C2.0%0hPa0V00:00:0000:00:0000:00:00
KE7DJD2026-08-30 17:52:2043.41119-115.7125286°55km/h14368m5.1m/s-54.0°C2.1%0hPa0V00:00:0000:00:0000:00:00
KE7DJD2026-08-30 17:52:0143.41080-115.7171484°62km/h14275m5.5m/s-53.9°C2.2%0hPa0V00:00:0000:00:0000:00:00
KE7DJD2026-08-30 17:51:3943.41029-115.7219982°66km/h14169m6.5m/s-54.3°C2.4%0hPa0V00:00:0000:00:0000:00:00
KE7DJD2026-08-30 17:51:1843.40985-115.7264792°64km/h14055m4.0m/s-54.2°C2.6%0hPa0V00:00:0000:00:0000:00:00
KE7DJD2026-08-30 17:50:5843.40991-115.7304197°58km/h13953m4.0m/s-54.2°C2.8%0hPa0V00:00:0000:00:0000:00:00
KE7DJD2026-08-30 17:50:3743.41019-115.7347183°55km/h13854m4.4m/s-54.2°C3.0%0hPa0V00:00:0000:00:0000:00:00
KE7DJD2026-08-30 17:50:1643.41039-115.7396199°73km/h13757m5.5m/s-55.3°C3.8%0hPa0V00:00:0000:00:0000:00:00
KE7DJD2026-08-30 17:49:5643.41069-115.7446497°75km/h13658m5.1m/s-56.1°C4.2%0hPa0V00:00:0000:00:0000:00:00
KE7DJD2026-08-30 17:49:3443.41097-115.7495283°66km/h13559m5.0m/s-56.0°C4.2%0hPa0V00:00:0000:00:0000:00:00
KE7DJD2026-08-30 17:49:1443.41101-115.7541990°51km/h13469m2.9m/s-56.2°C4.6%0hPa0V00:00:0000:00:0000:00:00
KE7DJD2026-08-30 17:48:5443.41096-115.7588487°55km/h13380m2.8m/s-56.2°C4.8%0hPa0V00:00:0000:00:0000:00:00
KE7DJD2026-08-30 17:48:3443.41096-115.7636586°69km/h13287m5.8m/s-55.9°C5.0%0hPa0V00:00:0000:00:0000:00:00
KE7DJD2026-08-30 17:48:1343.41064-115.7682687°64km/h13199m4.9m/s-55.4°C5.3%0hPa0V00:00:0000:00:0000:00:00
KE7DJD2026-08-30 17:47:5343.41070-115.7727892°64km/h13105m5.5m/s-55.1°C5.8%0hPa0V00:00:0000:00:0000:00:00
KE7DJD2026-08-30 17:47:3343.41081-115.7771690°66km/h13013m5.2m/s-55.7°C7.2%0hPa0V00:00:0000:00:0000:00:00
KE7DJD2026-08-30 17:47:1243.41119-115.7818997°66km/h12919m5.4m/s-56.3°C8.6%0hPa0V00:00:0000:00:0000:00:00
KE7DJD2026-08-30 17:46:5143.41169-115.78633110°62km/h12821m4.2m/s-56.1°C9.1%0hPa0V00:00:0000:00:0000:00:00
KE7DJD2026-08-30 17:46:3143.41238-115.79030108°71km/h12727m4.4m/s-55.5°C9.0%0hPa0V00:00:0000:00:0000:00:00
KE7DJD2026-08-30 17:46:1043.41330-115.79491109°71km/h12631m6.1m/s-55.0°C9.6%0hPa0V00:00:0000:00:0000:00:00
KE7DJD2026-08-30 17:45:5043.41420-115.79979102°78km/h12540m3.5m/s-54.9°C10.4%0hPa0V00:00:0000:00:0000:00:00
KE7DJD2026-08-30 17:45:2943.41521-115.80532113°75km/h12448m4.1m/s-55.2°C11.8%0hPa0V00:00:0000:00:0000:00:00
KE7DJD2026-08-30 17:45:0843.41615-115.8101899°68km/h12358m4.2m/s-54.9°C13.1%0hPa0V00:00:0000:00:0000:00:00
KE7DJD2026-08-30 17:44:4843.41675-115.81446103°53km/h12272m6.0m/s-54.6°C15.8%0hPa0V00:00:0000:00:0000:00:00
KE7DJD2026-08-30 17:44:2743.41716-115.81893137°51km/h12162m7.1m/s-54.9°C23.2%0hPa0V00:00:0000:00:0000:00:00
KE7DJD2026-08-30 17:43:4643.41992-115.82813110°77km/h11961m5.3m/s-56.1°C32.8%0hPa0V00:00:0000:00:0000:00:00
KE7DJD2026-08-30 17:43:2643.42076-115.83258108°60km/h11874m5.4m/s-55.8°C32.7%0hPa0V00:00:0000:00:0000:00:00
KE7DJD2026-08-30 17:43:0643.42151-115.83665106°58km/h11785m4.6m/s-55.5°C33.1%0hPa0V00:00:0000:00:0000:00:00
KE7DJD2026-08-30 17:42:2643.42396-115.84413119°60km/h11575m5.5m/s-54.5°C28.5%0hPa0V00:00:0000:00:0000:00:00
KE7DJD2026-08-30 17:42:0543.42610-115.84749144°78km/h11477m3.7m/s-54.1°C27.5%0hPa0V00:00:0000:00:0000:00:00
KE7DJD2026-08-30 17:41:4543.42860-115.85065139°71km/h11386m3.2m/s-53.6°C27.4%0hPa0V00:00:0000:00:0000:00:00
KE7DJD2026-08-30 17:41:2443.43139-115.85392144°64km/h11291m4.9m/s-52.8°C26.8%0hPa0V00:00:0000:00:0000:00:00
KE7DJD2026-08-30 17:41:0443.43430-115.85703148°73km/h11201m4.1m/s-52.3°C27.3%0hPa0V00:00:0000:00:0000:00:00
KE7DJD2026-08-30 17:40:4443.43738-115.86022146°73km/h11109m6.1m/s-51.7°C25.7%0hPa0V00:00:0000:00:0000:00:00
KE7DJD2026-08-30 17:40:2343.44101-115.86361144°93km/h11015m4.3m/s-51.1°C27.0%0hPa0V00:00:0000:00:0000:00:00
KE7DJD2026-08-30 17:40:0343.44463-115.86699142°97km/h10928m4.2m/s-50.5°C29.3%0hPa0V00:00:0000:00:0000:00:00
KE7DJD2026-08-30 17:39:4343.44843-115.87047140°88km/h10843m3.4m/s-49.6°C27.7%0hPa0V00:00:0000:00:0000:00:00
KE7DJD2026-08-30 17:39:2243.45249-115.87424145°99km/h10752m4.6m/s-48.8°C26.7%0hPa0V00:00:0000:00:0000:00:00
KE7DJD2026-08-30 17:39:0243.45639-115.87775147°89km/h10663m5.4m/s-48.0°C25.6%0hPa0V00:00:0000:00:0000:00:00
KE7DJD2026-08-30 17:38:4143.46047-115.88142147°100km/h10574m5.5m/s-47.3°C27.6%0hPa0V00:00:0000:00:0000:00:00
KE7DJD2026-08-30 17:38:2143.46434-115.88481151°89km/h10484m4.6m/s-46.5°C29.2%0hPa0V00:00:0000:00:0000:00:00
KE7DJD2026-08-30 17:38:0143.46807-115.88822148°89km/h10397m4.0m/s-45.7°C31.9%0hPa0V00:00:0000:00:0000:00:00
KE7DJD2026-08-30 17:37:4043.47195-115.89184148°91km/h10306m5.3m/s-45.0°C29.3%0hPa0V00:00:0000:00:0000:00:00
KE7DJD2026-08-30 17:37:2043.47563-115.89525143°91km/h10218m4.0m/s-44.1°C28.3%0hPa0V00:00:0000:00:0000:00:00
KE7DJD2026-08-30 17:37:0043.47919-115.89850146°97km/h10134m5.4m/s-43.6°C28.5%0hPa0V00:00:0000:00:0000:00:00
KE7DJD2026-08-30 17:36:3943.48283-115.90213148°91km/h10043m4.0m/s-42.8°C29.6%0hPa0V00:00:0000:00:0000:00:00
KE7DJD2026-08-30 17:36:1843.48621-115.90564142°77km/h9952m5.0m/s-42.2°C30.4%0hPa0V00:00:0000:00:0000:00:00
KE7DJD2026-08-30 17:35:5743.48944-115.90913146°77km/h9861m5.7m/s-41.6°C31.7%0hPa0V00:00:0000:00:0000:00:00
KE7DJD2026-08-30 17:35:3843.49245-115.91247148°66km/h9777m3.5m/s-40.9°C35.6%0hPa0V00:00:0000:00:0000:00:00
KE7DJD2026-08-30 17:35:1643.49555-115.91606140°73km/h9688m5.2m/s-40.2°C40.4%0hPa0V00:00:0000:00:0000:00:00
KE7DJD2026-08-30 17:34:5643.49832-115.91958135°80km/h9600m4.6m/s-39.4°C35.7%0hPa0V00:00:0000:00:0000:00:00
KE7DJD2026-08-30 17:34:3543.50121-115.92333136°82km/h9509m5.0m/s-38.7°C37.1%0hPa0V00:00:0000:00:0000:00:00
KE7DJD2026-08-30 17:34:1443.50409-115.92731138°71km/h9417m4.2m/s-37.8°C36.2%0hPa0V00:00:0000:00:0000:00:00
KE7DJD2026-08-30 17:33:5443.50687-115.93120144°71km/h9337m3.5m/s-37.2°C32.8%0hPa0V00:00:0000:00:0000:00:00
KE7DJD2026-08-30 17:33:3343.50970-115.93519136°82km/h9243m3.9m/s-36.7°C41.4%0hPa0V00:00:0000:00:0000:00:00
KE7DJD2026-08-30 17:33:1343.51213-115.93878135°66km/h9153m5.1m/s-36.1°C47.0%0hPa0V00:00:0000:00:0000:00:00
KE7DJD2026-08-30 17:32:5343.51422-115.94260128°88km/h9071m2.7m/s-35.6°C51.5%0hPa0V00:00:0000:00:0000:00:00
KE7DJD2026-08-30 17:32:3443.51608-115.94615128°66km/h8981m5.2m/s-35.0°C52.2%0hPa0V00:00:0000:00:0000:00:00
KE7DJD2026-08-30 17:32:1243.51766-115.95010119°60km/h8897m5.1m/s-34.3°C50.7%0hPa0V00:00:0000:00:0000:00:00
KE7DJD2026-08-30 17:31:5143.51921-115.95416122°66km/h8809m2.9m/s-33.5°C49.2%0hPa0V00:00:0000:00:0000:00:00
KE7DJD2026-08-30 17:31:3143.52047-115.95815120°62km/h8732m3.6m/s-32.9°C49.1%0hPa0V00:00:0000:00:0000:00:00
KE7DJD2026-08-30 17:31:1143.52187-115.96232124°62km/h8649m3.9m/s-32.4°C50.3%0hPa0V00:00:0000:00:0000:00:00
KE7DJD2026-08-30 17:30:5043.52301-115.96655103°66km/h8565m3.8m/s-31.7°C48.2%0hPa0V00:00:0000:00:0000:00:00
KE7DJD2026-08-30 17:30:2943.52418-115.97128113°66km/h8482m3.8m/s-31.1°C47.6%0hPa0V00:00:0000:00:0000:00:00
KE7DJD2026-08-30 17:30:0943.52517-115.97594117°68km/h8401m4.4m/s-30.4°C46.7%0hPa0V00:00:0000:00:0000:00:00
KE7DJD2026-08-30 17:29:4843.52616-115.9807399°66km/h8318m4.3m/s-29.8°C48.8%0hPa0V00:00:0000:00:0000:00:00
KE7DJD2026-08-30 17:29:2743.52702-115.98565108°64km/h8234m3.1m/s-29.1°C49.7%0hPa0V00:00:0000:00:0000:00:00
KE7DJD2026-08-30 17:29:0643.52793-115.99067109°60km/h8142m3.3m/s-28.4°C50.7%0hPa0V00:00:0000:00:0000:00:00
KE7DJD2026-08-30 17:28:4543.52880-115.99573111°69km/h8054m4.5m/s-27.6°C50.3%0hPa0V00:00:0000:00:0000:00:00
KE7DJD2026-08-30 17:28:2443.52971-116.00071100°66km/h7969m5.0m/s-26.8°C47.7%0hPa0V00:00:0000:00:0000:00:00
KE7DJD2026-08-30 17:28:0443.53040-116.0056292°73km/h7884m3.1m/s-26.2°C48.2%0hPa0V00:00:0000:00:0000:00:00
KE7DJD2026-08-30 17:27:4443.53107-116.01057106°68km/h7796m4.4m/s-25.4°C40.9%0hPa0V00:00:0000:00:0000:00:00
KE7DJD2026-08-30 17:27:2443.53177-116.01545109°78km/h7712m4.6m/s-24.7°C38.6%0hPa0V00:00:0000:00:0000:00:00
KE7DJD2026-08-30 17:27:0343.53263-116.0202996°68km/h7611m4.6m/s-23.8°C36.3%0hPa0V00:00:0000:00:0000:00:00
KE7DJD2026-08-30 17:26:4343.53348-116.02458103°60km/h7523m4.4m/s-23.0°C33.9%0hPa0V00:00:0000:00:0000:00:00
KE7DJD2026-08-30 17:26:2243.53436-116.0292599°68km/h7438m3.0m/s-22.4°C35.7%0hPa0V00:00:0000:00:0000:00:00
KE7DJD2026-08-30 17:26:0143.53524-116.03391116°58km/h7355m3.1m/s-21.9°C33.3%0hPa0V00:00:0000:00:0000:00:00
KE7DJD2026-08-30 17:25:4143.53629-116.03839111°71km/h7273m4.5m/s-21.3°C30.8%0hPa0V00:00:0000:00:0000:00:00
KE7DJD2026-08-30 17:25:2043.53745-116.04241121°49km/h7189m3.3m/s-20.8°C17.6%0hPa0V00:00:0000:00:0000:00:00
KE7DJD2026-08-30 17:25:0043.53856-116.04619113°66km/h7109m4.2m/s-20.1°C9.8%0hPa0V00:00:0000:00:0000:00:00
KE7DJD2026-08-30 17:24:4043.53974-116.05026109°66km/h7029m3.1m/s-19.7°C6.1%0hPa0V00:00:0000:00:0000:00:00
KE7DJD2026-08-30 17:24:1943.54077-116.05453106°46km/h6949m3.3m/s-19.3°C7.5%0hPa0V00:00:0000:00:0000:00:00
KE7DJD2026-08-30 17:23:5843.54175-116.05878114°64km/h6867m5.0m/s-18.6°C8.4%0hPa0V00:00:0000:00:0000:00:00
KE7DJD2026-08-30 17:23:3743.54272-116.06289106°66km/h6785m2.5m/s-17.9°C8.0%0hPa0V00:00:0000:00:0000:00:00
KE7DJD2026-08-30 17:23:1743.54353-116.06664102°57km/h6707m5.7m/s-17.5°C10.3%0hPa0V00:00:0000:00:0000:00:00
KE7DJD2026-08-30 17:22:5643.54432-116.0704291°51km/h6612m4.1m/s-16.8°C12.4%0hPa0V00:00:0000:00:0000:00:00
KE7DJD2026-08-30 17:22:1443.54532-116.0783997°58km/h6446m3.7m/s-15.6°C13.6%0hPa0V00:00:0000:00:0000:00:00
KE7DJD2026-08-30 17:21:5343.54590-116.08234106°49km/h6367m3.8m/s-15.0°C13.9%0hPa0V00:00:0000:00:0000:00:00
KE7DJD2026-08-30 17:21:3243.54654-116.08618109°68km/h6287m2.9m/s-14.4°C12.0%0hPa0V00:00:0000:00:0000:00:00
KE7DJD2026-08-30 17:21:1243.54697-116.0899199°62km/h6204m4.6m/s-13.8°C11.7%0hPa0V00:00:0000:00:0000:00:00
KE7DJD2026-08-30 17:20:5143.54745-116.09401105°57km/h6123m4.9m/s-13.1°C10.9%0hPa0V00:00:0000:00:0000:00:00
KE7DJD2026-08-30 17:20:3043.54791-116.09808102°57km/h6035m4.5m/s-12.5°C9.7%0hPa0V00:00:0000:00:0000:00:00
KE7DJD2026-08-30 17:20:0943.54843-116.1021196°53km/h5949m4.5m/s-12.1°C10.9%0hPa0V00:00:0000:00:0000:00:00
KE7DJD2026-08-30 17:19:4843.54923-116.10595114°55km/h5859m4.4m/s-11.7°C10.3%0hPa0V00:00:0000:00:0000:00:00
KE7DJD2026-08-30 17:19:2743.55002-116.10955113°47km/h5770m5.3m/s-11.2°C8.7%0hPa0V00:00:0000:00:0000:00:00
KE7DJD2026-08-30 17:19:0643.55070-116.11295106°38km/h5682m4.4m/s-10.9°C4.1%0hPa0V00:00:0000:00:0000:00:00
KE7DJD2026-08-30 17:18:4543.55146-116.11601104°46km/h5587m4.7m/s-10.8°C4.7%0hPa0V00:00:0000:00:0000:00:00
KE7DJD2026-08-30 17:18:2543.55216-116.1189881°47km/h5485m5.6m/s-10.1°C5.2%0hPa0V00:00:0000:00:0000:00:00
KE7DJD2026-08-30 17:18:0543.55240-116.12200130°42km/h5379m5.6m/s-9.4°C4.7%0hPa0V00:00:0000:00:0000:00:00
KE7DJD2026-08-30 17:17:4443.55285-116.1248893°22km/h5278m3.9m/s-8.8°C5.0%0hPa0V00:00:0000:00:0000:00:00
KE7DJD2026-08-30 17:17:2343.55319-116.12771107°55km/h5177m4.1m/s-8.2°C6.8%0hPa0V00:00:0000:00:0000:00:00
KE7DJD2026-08-30 17:17:0343.55340-116.13021105°38km/h5093m5.8m/s-7.5°C6.2%0hPa0V00:00:0000:00:0000:00:00
KE7DJD2026-08-30 17:16:4243.55373-116.1332899°49km/h4987m3.3m/s-6.7°C5.2%0hPa0V00:00:0000:00:0000:00:00
KE7DJD2026-08-30 17:16:2243.55367-116.13592100°53km/h4885m5.9m/s-6.8°C9.9%0hPa0V00:00:0000:00:0000:00:00
KE7DJD2026-08-30 17:16:0143.55391-116.13907117°40km/h4773m4.4m/s-5.9°C9.2%0hPa0V00:00:0000:00:0000:00:00
KE7DJD2026-08-30 17:15:4043.55410-116.14181123°44km/h4666m8.2m/s-5.1°C8.8%0hPa0V00:00:0000:00:0000:00:00
KE7DJD2026-08-30 17:15:1943.55466-116.14452125°27km/h4544m5.0m/s-4.0°C7.1%0hPa0V00:00:0000:00:0000:00:00
KE7DJD2026-08-30 17:14:5943.55475-116.1472375°38km/h4436m4.7m/s-3.2°C5.2%0hPa0V00:00:0000:00:0000:00:00
KE7DJD2026-08-30 17:14:3943.55505-116.1495896°38km/h4332m6.7m/s-2.3°C7.4%0hPa0V00:00:0000:00:0000:00:00
KE7DJD2026-08-30 17:14:1843.55528-116.1522463°26km/h4214m4.8m/s-1.3°C7.2%0hPa0V00:00:0000:00:0000:00:00
KE7DJD2026-08-30 17:13:5743.55511-116.15451117°26km/h4109m5.4m/s-0.4°C4.9%0hPa0V00:00:0000:00:0000:00:00
KE7DJD2026-08-30 17:13:3743.55502-116.1572695°29km/h4012m7.0m/s0.4°C4.0%0hPa0V00:00:0000:00:0000:00:00
KE7DJD2026-08-30 17:13:1643.55548-116.16024114°55km/h3903m3.7m/s-1.2°C13.0%0hPa0V00:00:0000:00:0000:00:00
KE7DJD2026-08-30 17:12:5643.55588-116.16418112°51km/h3809m4.1m/s-0.8°C15.3%0hPa0V00:00:0000:00:0000:00:00
KE7DJD2026-08-30 17:12:3543.55593-116.16792111°51km/h3709m6.3m/s-0.5°C16.2%0hPa0V00:00:0000:00:0000:00:00
KE7DJD2026-08-30 17:12:1443.55603-116.17107107°53km/h3610m4.7m/s0.2°C14.3%0hPa0V00:00:0000:00:0000:00:00
KE7DJD2026-08-30 17:11:5343.55643-116.17385103°53km/h3487m5.4m/s1.1°C14.4%0hPa0V00:00:0000:00:0000:00:00
KE7DJD2026-08-30 17:11:3343.55685-116.1771982°49km/h3375m6.3m/s1.8°C15.3%0hPa0V00:00:0000:00:0000:00:00
KE7DJD2026-08-30 17:11:1343.55719-116.1799783°24km/h3247m5.4m/s2.7°C14.7%0hPa0V00:00:0000:00:0000:00:00
KE7DJD2026-08-30 17:10:5243.55762-116.18279118°24km/h3128m5.3m/s3.2°C19.7%0hPa0V00:00:0000:00:0000:00:00
KE7DJD2026-08-30 17:10:3243.55800-116.18503113°27km/h3020m6.2m/s3.9°C20.3%0hPa0V00:00:0000:00:0000:00:00
KE7DJD2026-08-30 17:09:5243.55916-116.1901276°42km/h2789m5.5m/s5.4°C21.8%0hPa0V00:00:0000:00:0000:00:00
KE7DJD2026-08-30 17:09:3043.55969-116.1924969°38km/h2662m5.5m/s6.1°C20.5%0hPa0V00:00:0000:00:0000:00:00
KE7DJD2026-08-30 17:09:1043.55995-116.1944281°37km/h2541m4.8m/s6.8°C23.7%0hPa0V00:00:0000:00:0000:00:00
KE7DJD2026-08-30 17:08:4943.56053-116.19662110°29km/h2421m5.7m/s7.5°C21.8%0hPa0V00:00:0000:00:0000:00:00
KE7DJD2026-08-30 17:08:2843.56127-116.1978472°7km/h2299m5.5m/s7.6°C9.3%0hPa0V00:00:0000:00:0000:00:00
KE7DJD2026-08-30 17:08:0743.56155-116.1993161°20km/h2188m6.0m/s5.9°C21.7%0hPa0V00:00:0000:00:0000:00:00
KE7DJD2026-08-30 17:07:4743.56216-116.20014127°44km/h2073m5.2m/s5.4°C37.3%0hPa0V00:00:0000:00:0000:00:00
KE7DJD2026-08-30 17:07:2643.56288-116.20135101°37km/h1954m6.0m/s6.0°C46.6%0hPa0V00:00:0000:00:0000:00:00
KE7DJD2026-08-30 17:07:0643.56362-116.2029684°35km/h1855m6.2m/s6.7°C54.9%0hPa0V00:00:0000:00:0000:00:00
KE7DJD2026-08-30 17:06:4543.56416-116.2045985°31km/h1722m5.8m/s7.9°C43.0%0hPa0V00:00:0000:00:0000:00:00
KE7DJD2026-08-30 17:06:2443.56486-116.2059993°27km/h1594m5.5m/s8.7°C45.3%0hPa0V00:00:0000:00:0000:00:00


GPX KML Map

© wettersonde.net (DO2JMG) - 2026  -  -